Time,TemperatureF,DewpointF,PressureIn,WindDirection,WindDirectionDegrees,WindSpeedMPH,WindSpeedGustMPH,Humidity,HourlyPrecipIn,Conditions,Clouds,dailyrainin,SolarRadiationWatts/m^2,SoftwareType,DateUTC
2013-05-01 00:00:00,69.0,57.0,-100.00,SSE,157,8.0,-999.0,66,-99.99,,,-99.99,0.000000,,2013-05-01 04:00:00,
2013-05-01 00:43:00,69.0,57.0,-100.00,SSE,157,8.0,-999.0,66,-99.99,,,-99.99,0.000000,,2013-05-01 04:43:00,
2013-05-01 00:52:00,69.0,57.0,-100.00,SSE,157,8.0,-999.0,66,-99.99,,,-99.99,0.000000,,2013-05-01 04:52:00,
2013-05-01 01:00:00,69.0,57.0,-100.00,South,180,9.0,-999.0,65,-99.99,,,-99.99,0.000000,,2013-05-01 05:00:00,
2013-05-01 01:42:00,69.0,57.0,-100.00,South,180,9.0,-999.0,65,-99.99,,,-99.99,0.000000,,2013-05-01 05:42:00,
2013-05-01 01:52:00,69.0,57.0,-100.00,South,180,9.0,-999.0,65,-99.99,,,-99.99,0.000000,,2013-05-01 05:52:00,
2013-05-01 02:00:00,72.0,57.0,-100.00,SSW,202,14.0,-999.0,60,-99.99,,,-99.99,0.000000,,2013-05-01 06:00:00,
2013-05-01 02:42:00,72.0,57.0,-100.00,SSW,202,14.0,-999.0,60,-99.99,,,-99.99,0.000000,,2013-05-01 06:42:00,
2013-05-01 02:52:00,72.0,57.0,-100.00,SSW,202,14.0,-999.0,60,-99.99,,,-99.99,0.000000,,2013-05-01 06:52:00,
2013-05-01 03:00:00,72.0,57.0,-100.00,SSW,202,10.0,-999.0,60,-99.99,,,-99.99,0.000000,,2013-05-01 07:00:00,
2013-05-01 03:42:00,72.0,57.0,-100.00,SSW,202,10.0,-999.0,60,-99.99,,,-99.99,0.000000,,2013-05-01 07:42:00,
2013-05-01 03:52:00,72.0,57.0,-100.00,SSW,202,10.0,-999.0,60,-99.99,,,-99.99,0.000000,,2013-05-01 07:52:00,
2013-05-01 04:00:00,71.0,57.0,-100.00,SSW,202,9.0,-999.0,62,-99.99,,,-99.99,0.000000,,2013-05-01 08:00:00,
2013-05-01 04:42:00,71.0,57.0,-100.00,SSW,202,9.0,-999.0,62,-99.99,,,-99.99,0.000000,,2013-05-01 08:42:00,
2013-05-01 04:53:00,71.0,57.0,-100.00,SSW,202,9.0,-999.0,62,-99.99,,,-99.99,0.000000,,2013-05-01 08:53:00,
2013-05-01 05:00:00,58.0,51.0,-100.00,WSW,247,9.0,-999.0,76,-99.99,,,-99.99,0.000000,,2013-05-01 09:00:00,
2013-05-01 05:43:00,58.0,51.0,-100.00,WSW,247,9.0,-999.0,76,-99.99,,,-99.99,0.000000,,2013-05-01 09:43:00,
2013-05-01 05:53:00,58.0,51.0,-100.00,WSW,247,9.0,-999.0,76,-99.99,,,-99.99,0.000000,,2013-05-01 09:53:00,
2013-05-01 06:00:00,52.0,48.0,-100.00,WSW,247,9.0,-999.0,85,-99.99,,,-99.99,0.000000,,2013-05-01 10:00:00,
2013-05-01 06:42:00,52.0,48.0,-100.00,WSW,247,9.0,-999.0,85,-99.99,,,-99.99,0.000000,,2013-05-01 10:42:00,
2013-05-01 06:53:00,52.0,48.0,-100.00,WSW,247,9.0,-999.0,85,-99.99,,,-99.99,0.000000,,2013-05-01 10:53:00,
2013-05-01 07:00:00,52.0,47.0,-100.00,WSW,247,3.0,-999.0,85,-99.99,,,-99.99,4.640000,,2013-05-01 11:00:00,
2013-05-01 07:42:00,52.0,47.0,-100.00,WSW,247,3.0,-999.0,85,-99.99,,,-99.99,4.640000,,2013-05-01 11:42:00,
2013-05-01 07:52:00,52.0,47.0,-100.00,WSW,247,3.0,-999.0,85,-99.99,,,-99.99,4.640000,,2013-05-01 11:52:00,
2013-05-01 09:00:00,60.0,52.0,-100.00,SSE,157,3.0,-999.0,76,-99.99,,,-99.99,256.359985,,2013-05-01 13:00:00,
2013-05-01 09:42:00,60.0,52.0,-100.00,SSE,157,3.0,-999.0,76,-99.99,,,-99.99,256.359985,,2013-05-01 13:42:00,
2013-05-01 09:52:00,60.0,52.0,-100.00,SSE,157,3.0,-999.0,76,-99.99,,,-99.99,256.359985,,2013-05-01 13:52:00,
2013-05-01 10:00:00,62.0,52.0,-100.00,West,270,7.0,-999.0,71,-99.99,,,-99.99,433.839996,,2013-05-01 14:00:00,
2013-05-01 10:42:00,62.0,52.0,-100.00,West,270,7.0,-999.0,71,-99.99,,,-99.99,433.839996,,2013-05-01 14:42:00,
2013-05-01 10:52:00,62.0,52.0,-100.00,West,270,7.0,-999.0,71,-99.99,,,-99.99,433.839996,,2013-05-01 14:52:00,
2013-05-01 11:00:00,57.0,47.0,-100.00,South,180,5.0,-999.0,69,-99.99,,,-99.99,520.840027,,2013-05-01 15:00:00,
2013-05-01 11:43:00,57.0,47.0,-100.00,South,180,5.0,-999.0,69,-99.99,,,-99.99,520.840027,,2013-05-01 15:43:00,
2013-05-01 11:53:00,57.0,47.0,-100.00,South,180,5.0,-999.0,69,-99.99,,,-99.99,520.840027,,2013-05-01 15:53:00,
2013-05-01 12:00:00,57.0,48.0,-100.00,WNW,292,5.0,-999.0,70,-99.99,,,-99.99,602.039978,,2013-05-01 16:00:00,
2013-05-01 12:42:00,57.0,48.0,-100.00,WNW,292,5.0,-999.0,70,-99.99,,,-99.99,602.039978,,2013-05-01 16:42:00,
2013-05-01 12:53:00,57.0,48.0,-100.00,WNW,292,5.0,-999.0,70,-99.99,,,-99.99,602.039978,,2013-05-01 16:53:00,
2013-05-01 13:00:00,58.0,50.0,-100.00,WNW,292,6.0,-999.0,76,-99.99,,,-99.99,801.559998,,2013-05-01 17:00:00,
2013-05-01 13:42:00,58.0,50.0,-100.00,WNW,292,6.0,-999.0,76,-99.99,,,-99.99,801.559998,,2013-05-01 17:42:00,
2013-05-01 13:52:00,58.0,50.0,-100.00,WNW,292,6.0,-999.0,76,-99.99,,,-99.99,801.559998,,2013-05-01 17:52:00,
2013-05-01 15:00:00,57.0,50.0,-100.00,West,270,6.0,-999.0,78,-99.99,,,-99.99,824.760010,,2013-05-01 19:00:00,
2013-05-01 15:43:00,57.0,50.0,-100.00,West,270,6.0,-999.0,78,-99.99,,,-99.99,824.760010,,2013-05-01 19:43:00,
2013-05-01 15:52:00,57.0,50.0,-100.00,West,270,6.0,-999.0,78,-99.99,,,-99.99,824.760010,,2013-05-01 19:52:00,
2013-05-01 16:00:00,65.0,53.0,-100.00,ENE,67,5.0,-999.0,67,-99.99,,,-99.99,759.799988,,2013-05-01 20:00:00,
2013-05-01 16:42:00,65.0,53.0,-100.00,ENE,67,5.0,-999.0,67,-99.99,,,-99.99,759.799988,,2013-05-01 20:42:00,
2013-05-01 16:52:00,65.0,53.0,-100.00,ENE,67,5.0,-999.0,67,-99.99,,,-99.99,759.799988,,2013-05-01 20:52:00,
2013-05-01 17:00:00,65.0,53.0,-100.00,ENE,67,7.0,-999.0,64,-99.99,,,-99.99,639.159973,,2013-05-01 21:00:00,
2013-05-01 17:43:00,65.0,53.0,-100.00,ENE,67,7.0,-999.0,64,-99.99,,,-99.99,639.159973,,2013-05-01 21:43:00,
2013-05-01 17:53:00,65.0,53.0,-100.00,ENE,67,7.0,-999.0,64,-99.99,,,-99.99,639.159973,,2013-05-01 21:53:00,
2013-05-01 18:00:00,59.0,49.0,-100.00,ENE,67,5.0,-999.0,67,-99.99,,,-99.99,481.399994,,2013-05-01 22:00:00,
2013-05-01 18:42:00,59.0,49.0,-100.00,ENE,67,5.0,-999.0,67,-99.99,,,-99.99,481.399994,,2013-05-01 22:42:00,
2013-05-01 18:53:00,59.0,49.0,-100.00,ENE,67,5.0,-999.0,67,-99.99,,,-99.99,481.399994,,2013-05-01 22:53:00,
2013-05-01 19:00:00,55.0,43.0,-100.00,SE,135,5.0,-999.0,61,-99.99,,,-99.99,315.519989,,2013-05-01 23:00:00,
2013-05-01 19:42:00,55.0,43.0,-100.00,SE,135,5.0,-999.0,61,-99.99,,,-99.99,315.519989,,2013-05-01 23:42:00,
2013-05-01 19:52:00,55.0,43.0,-100.00,SE,135,5.0,-999.0,61,-99.99,,,-99.99,315.519989,,2013-05-01 23:52:00,
2013-05-01 21:00:00,47.0,37.0,-100.00,NE,45,7.0,-999.0,67,-99.99,,,-99.99,23.200001,,2013-05-02 01:00:00,
2013-05-01 21:42:00,47.0,37.0,-100.00,NE,45,7.0,-999.0,67,-99.99,,,-99.99,23.200001,,2013-05-02 01:42:00,
2013-05-01 21:52:00,47.0,37.0,-100.00,NE,45,7.0,-999.0,67,-99.99,,,-99.99,23.200001,,2013-05-02 01:52:00,
2013-05-01 22:00:00,47.0,36.0,-100.00,ENE,67,8.0,-999.0,64,-99.99,,,-99.99,0.000000,,2013-05-02 02:00:00,
2013-05-01 23:00:00,46.0,34.0,-100.00,NE,45,11.0,-999.0,63,-99.99,,,-99.99,0.000000,,2013-05-02 03:00:00,
2013-05-01 23:43:00,46.0,34.0,-100.00,NE,45,11.0,-999.0,63,-99.99,,,-99.99,0.000000,,2013-05-02 03:43:00,
2013-05-01 23:53:00,46.0,34.0,-100.00,NE,45,11.0,-999.0,63,-99.99,,,-99.99,0.000000,,2013-05-02 03:53:00,